sensor_id;sensor_type;location;lat;lon;timestamp;P1;durP1;ratioP1;P2;durP2;ratioP2
26654;SDS011;14278;50.784;4.630;2022-07-23T00:02:08;5.50;;;4.23;;
26654;SDS011;14278;50.784;4.630;2022-07-23T00:04:34;4.00;;;3.57;;
26654;SDS011;14278;50.784;4.630;2022-07-23T00:07:08;5.03;;;4.03;;
26654;SDS011;14278;50.784;4.630;2022-07-23T00:09:33;4.43;;;4.03;;
26654;SDS011;14278;50.784;4.630;2022-07-23T00:11:59;5.40;;;4.83;;
26654;SDS011;14278;50.784;4.630;2022-07-23T00:14:25;4.00;;;3.60;;
26654;SDS011;14278;50.784;4.630;2022-07-23T00:16:51;7.93;;;5.40;;
26654;SDS011;14278;50.784;4.630;2022-07-23T00:19:17;4.10;;;3.70;;
26654;SDS011;14278;50.784;4.630;2022-07-23T00:21:43;3.90;;;3.60;;
26654;SDS011;14278;50.784;4.630;2022-07-23T00:24:09;4.70;;;4.00;;
26654;SDS011;14278;50.784;4.630;2022-07-23T00:26:34;3.73;;;3.40;;
26654;SDS011;14278;50.784;4.630;2022-07-23T00:29:00;4.23;;;3.63;;
26654;SDS011;14278;50.784;4.630;2022-07-23T00:31:26;4.17;;;3.33;;
26654;SDS011;14278;50.784;4.630;2022-07-23T00:33:52;6.33;;;4.60;;
26654;SDS011;14278;50.784;4.630;2022-07-23T00:36:22;4.17;;;3.77;;
26654;SDS011;14278;50.784;4.630;2022-07-23T00:38:49;5.57;;;4.20;;
26654;SDS011;14278;50.784;4.630;2022-07-23T00:41:15;4.60;;;4.10;;
26654;SDS011;14278;50.784;4.630;2022-07-23T00:43:41;4.50;;;4.10;;
26654;SDS011;14278;50.784;4.630;2022-07-23T00:46:07;6.20;;;4.43;;
26654;SDS011;14278;50.784;4.630;2022-07-23T00:48:32;4.63;;;3.03;;
26654;SDS011;14278;50.784;4.630;2022-07-23T00:50:58;4.97;;;3.33;;
26654;SDS011;14278;50.784;4.630;2022-07-23T00:53:24;3.60;;;3.03;;
26654;SDS011;14278;50.784;4.630;2022-07-23T00:55:50;3.50;;;3.20;;
26654;SDS011;14278;50.784;4.630;2022-07-23T00:58:16;3.47;;;3.17;;
26654;SDS011;14278;50.784;4.630;2022-07-23T01:00:43;3.07;;;2.87;;
26654;SDS011;14278;50.784;4.630;2022-07-23T01:03:09;3.27;;;2.97;;
26654;SDS011;14278;50.784;4.630;2022-07-23T01:05:35;4.93;;;3.40;;
26654;SDS011;14278;50.784;4.630;2022-07-23T01:08:06;3.07;;;2.83;;
26654;SDS011;14278;50.784;4.630;2022-07-23T01:10:32;2.90;;;2.67;;
26654;SDS011;14278;50.784;4.630;2022-07-23T01:15:29;6.23;;;3.53;;
26654;SDS011;14278;50.784;4.630;2022-07-23T01:17:57;2.97;;;2.67;;
26654;SDS011;14278;50.784;4.630;2022-07-23T01:20:23;4.53;;;4.10;;
26654;SDS011;14278;50.784;4.630;2022-07-23T01:22:49;4.10;;;3.70;;
26654;SDS011;14278;50.784;4.630;2022-07-23T01:25:16;3.80;;;3.40;;
26654;SDS011;14278;50.784;4.630;2022-07-23T01:27:43;3.77;;;3.47;;
26654;SDS011;14278;50.784;4.630;2022-07-23T01:30:09;3.93;;;3.60;;
26654;SDS011;14278;50.784;4.630;2022-07-23T01:32:36;3.53;;;2.87;;
26654;SDS011;14278;50.784;4.630;2022-07-23T01:35:03;3.47;;;2.90;;
26654;SDS011;14278;50.784;4.630;2022-07-23T01:37:29;5.00;;;3.93;;
26654;SDS011;14278;50.784;4.630;2022-07-23T01:39:55;4.20;;;3.43;;
26654;SDS011;14278;50.784;4.630;2022-07-23T01:42:22;6.20;;;5.20;;
26654;SDS011;14278;50.784;4.630;2022-07-23T01:44:48;3.27;;;2.97;;
26654;SDS011;14278;50.784;4.630;2022-07-23T01:47:14;3.80;;;3.43;;
26654;SDS011;14278;50.784;4.630;2022-07-23T01:49:40;5.90;;;4.77;;
26654;SDS011;14278;50.784;4.630;2022-07-23T01:52:06;3.47;;;3.13;;
26654;SDS011;14278;50.784;4.630;2022-07-23T01:54:36;4.53;;;3.20;;
26654;SDS011;14278;50.784;4.630;2022-07-23T01:57:03;3.43;;;3.13;;
26654;SDS011;14278;50.784;4.630;2022-07-23T01:59:30;4.23;;;3.73;;
26654;SDS011;14278;50.784;4.630;2022-07-23T02:01:56;5.40;;;4.30;;
26654;SDS011;14278;50.784;4.630;2022-07-23T02:04:23;7.83;;;5.07;;
26654;SDS011;14278;50.784;4.630;2022-07-23T02:06:49;5.77;;;4.17;;
26654;SDS011;14278;50.784;4.630;2022-07-23T02:09:16;3.80;;;3.43;;
26654;SDS011;14278;50.784;4.630;2022-07-23T02:11:43;2.60;;;2.40;;
26654;SDS011;14278;50.784;4.630;2022-07-23T02:14:09;3.17;;;2.97;;
26654;SDS011;14278;50.784;4.630;2022-07-23T02:16:34;3.23;;;2.93;;
26654;SDS011;14278;50.784;4.630;2022-07-23T02:19:01;3.73;;;3.23;;
26654;SDS011;14278;50.784;4.630;2022-07-23T02:21:28;2.70;;;2.50;;
26654;SDS011;14278;50.784;4.630;2022-07-23T02:23:55;3.67;;;3.17;;
26654;SDS011;14278;50.784;4.630;2022-07-23T02:26:20;10.43;;;3.33;;
26654;SDS011;14278;50.784;4.630;2022-07-23T02:28:46;3.30;;;2.87;;
26654;SDS011;14278;50.784;4.630;2022-07-23T02:31:12;3.43;;;3.00;;
26654;SDS011;14278;50.784;4.630;2022-07-23T02:33:38;3.20;;;2.90;;
26654;SDS011;14278;50.784;4.630;2022-07-23T02:36:03;3.00;;;2.80;;
26654;SDS011;14278;50.784;4.630;2022-07-23T02:38:30;3.97;;;3.43;;
26654;SDS011;14278;50.784;4.630;2022-07-23T02:40:55;3.33;;;3.00;;
26654;SDS011;14278;50.784;4.630;2022-07-23T02:43:21;2.83;;;2.37;;
26654;SDS011;14278;50.784;4.630;2022-07-23T02:45:47;2.13;;;2.03;;
26654;SDS011;14278;50.784;4.630;2022-07-23T02:48:13;2.60;;;2.00;;
26654;SDS011;14278;50.784;4.630;2022-07-23T02:50:42;1.60;;;1.50;;
26654;SDS011;14278;50.784;4.630;2022-07-23T02:53:08;2.50;;;2.30;;
26654;SDS011;14278;50.784;4.630;2022-07-23T02:55:34;2.30;;;2.10;;
26654;SDS011;14278;50.784;4.630;2022-07-23T02:58:00;2.83;;;2.47;;
26654;SDS011;14278;50.784;4.630;2022-07-23T03:00:25;2.70;;;2.50;;
26654;SDS011;14278;50.784;4.630;2022-07-23T03:02:51;3.80;;;2.40;;
26654;SDS011;14278;50.784;4.630;2022-07-23T03:05:17;2.43;;;2.23;;
26654;SDS011;14278;50.784;4.630;2022-07-23T03:07:43;2.20;;;1.67;;
26654;SDS011;14278;50.784;4.630;2022-07-23T03:10:09;2.80;;;2.60;;
26654;SDS011;14278;50.784;4.630;2022-07-23T03:12:35;2.60;;;2.37;;
26654;SDS011;14278;50.784;4.630;2022-07-23T03:15:01;2.43;;;2.10;;
26654;SDS011;14278;50.784;4.630;2022-07-23T03:17:27;3.27;;;2.50;;
26654;SDS011;14278;50.784;4.630;2022-07-23T03:19:53;2.03;;;1.93;;
26654;SDS011;14278;50.784;4.630;2022-07-23T03:22:19;4.77;;;2.67;;
26654;SDS011;14278;50.784;4.630;2022-07-23T03:24:45;3.13;;;2.80;;
26654;SDS011;14278;50.784;4.630;2022-07-23T03:27:20;3.60;;;3.33;;
26654;SDS011;14278;50.784;4.630;2022-07-23T03:29:51;2.80;;;2.60;;
26654;SDS011;14278;50.784;4.630;2022-07-23T03:32:17;3.13;;;2.47;;
26654;SDS011;14278;50.784;4.630;2022-07-23T03:34:43;3.03;;;2.53;;
26654;SDS011;14278;50.784;4.630;2022-07-23T03:37:09;3.60;;;3.30;;
26654;SDS011;14278;50.784;4.630;2022-07-23T03:39:35;1.97;;;1.87;;
26654;SDS011;14278;50.784;4.630;2022-07-23T03:42:01;2.80;;;2.57;;
26654;SDS011;14278;50.784;4.630;2022-07-23T03:44:27;6.57;;;2.70;;
26654;SDS011;14278;50.784;4.630;2022-07-23T03:46:53;5.03;;;3.00;;
26654;SDS011;14278;50.784;4.630;2022-07-23T03:49:19;3.13;;;2.73;;
26654;SDS011;14278;50.784;4.630;2022-07-23T03:51:45;2.43;;;2.23;;
26654;SDS011;14278;50.784;4.630;2022-07-23T03:54:11;2.87;;;2.50;;
26654;SDS011;14278;50.784;4.630;2022-07-23T03:56:37;3.53;;;2.90;;
26654;SDS011;14278;50.784;4.630;2022-07-23T03:59:03;3.40;;;2.67;;
26654;SDS011;14278;50.784;4.630;2022-07-23T04:01:28;2.70;;;2.50;;
26654;SDS011;14278;50.784;4.630;2022-07-23T04:03:54;3.30;;;2.70;;
26654;SDS011;14278;50.784;4.630;2022-07-23T04:06:21;1.80;;;1.70;;
26654;SDS011;14278;50.784;4.630;2022-07-23T04:08:46;3.00;;;2.47;;
26654;SDS011;14278;50.784;4.630;2022-07-23T04:11:13;4.20;;;3.10;;
26654;SDS011;14278;50.784;4.630;2022-07-23T04:13:39;5.80;;;3.10;;
26654;SDS011;14278;50.784;4.630;2022-07-23T04:16:05;2.77;;;2.47;;
26654;SDS011;14278;50.784;4.630;2022-07-23T04:18:31;2.17;;;2.07;;
26654;SDS011;14278;50.784;4.630;2022-07-23T04:20:57;2.67;;;2.30;;
26654;SDS011;14278;50.784;4.630;2022-07-23T04:23:23;3.27;;;2.67;;
26654;SDS011;14278;50.784;4.630;2022-07-23T04:25:48;2.20;;;2.00;;
26654;SDS011;14278;50.784;4.630;2022-07-23T04:28:14;1.97;;;1.83;;
26654;SDS011;14278;50.784;4.630;2022-07-23T04:30:40;1.80;;;1.70;;
26654;SDS011;14278;50.784;4.630;2022-07-23T04:33:06;5.80;;;2.83;;
26654;SDS011;14278;50.784;4.630;2022-07-23T04:35:34;2.73;;;2.53;;
26654;SDS011;14278;50.784;4.630;2022-07-23T04:38:01;2.97;;;1.90;;
26654;SDS011;14278;50.784;4.630;2022-07-23T04:40:27;2.60;;;2.40;;
26654;SDS011;14278;50.784;4.630;2022-07-23T04:42:54;2.63;;;2.43;;
26654;SDS011;14278;50.784;4.630;2022-07-23T04:45:20;2.70;;;2.37;;
26654;SDS011;14278;50.784;4.630;2022-07-23T04:47:46;3.50;;;2.87;;
26654;SDS011;14278;50.784;4.630;2022-07-23T04:50:11;4.13;;;3.37;;
26654;SDS011;14278;50.784;4.630;2022-07-23T04:52:37;3.17;;;2.97;;
26654;SDS011;14278;50.784;4.630;2022-07-23T04:55:03;3.43;;;3.13;;
26654;SDS011;14278;50.784;4.630;2022-07-23T04:57:30;3.87;;;3.47;;
26654;SDS011;14278;50.784;4.630;2022-07-23T04:59:56;2.97;;;2.77;;
26654;SDS011;14278;50.784;4.630;2022-07-23T05:02:21;5.93;;;2.97;;
26654;SDS011;14278;50.784;4.630;2022-07-23T05:04:47;4.57;;;2.93;;
26654;SDS011;14278;50.784;4.630;2022-07-23T05:07:13;3.17;;;2.93;;
26654;SDS011;14278;50.784;4.630;2022-07-23T05:09:39;3.37;;;2.50;;
26654;SDS011;14278;50.784;4.630;2022-07-23T05:12:04;2.63;;;2.43;;
26654;SDS011;14278;50.784;4.630;2022-07-23T05:14:31;3.13;;;2.87;;
26654;SDS011;14278;50.784;4.630;2022-07-23T05:16:57;2.33;;;2.13;;
26654;SDS011;14278;50.784;4.630;2022-07-23T05:19:23;2.73;;;2.53;;
26654;SDS011;14278;50.784;4.630;2022-07-23T05:21:49;2.43;;;2.23;;
26654;SDS011;14278;50.784;4.630;2022-07-23T05:24:15;3.03;;;2.70;;
26654;SDS011;14278;50.784;4.630;2022-07-23T05:26:41;2.83;;;2.60;;
26654;SDS011;14278;50.784;4.630;2022-07-23T05:29:07;2.20;;;2.00;;
26654;SDS011;14278;50.784;4.630;2022-07-23T05:31:33;2.90;;;2.50;;
26654;SDS011;14278;50.784;4.630;2022-07-23T05:33:59;3.77;;;2.27;;
26654;SDS011;14278;50.784;4.630;2022-07-23T05:36:24;2.57;;;2.27;;
26654;SDS011;14278;50.784;4.630;2022-07-23T05:38:50;2.27;;;2.07;;
26654;SDS011;14278;50.784;4.630;2022-07-23T05:41:16;1.57;;;1.47;;
26654;SDS011;14278;50.784;4.630;2022-07-23T05:43:42;2.90;;;2.10;;
26654;SDS011;14278;50.784;4.630;2022-07-23T05:46:08;2.63;;;2.43;;
26654;SDS011;14278;50.784;4.630;2022-07-23T05:48:34;2.87;;;2.27;;
26654;SDS011;14278;50.784;4.630;2022-07-23T05:50:59;2.87;;;2.67;;
26654;SDS011;14278;50.784;4.630;2022-07-23T05:53:25;5.47;;;3.93;;
26654;SDS011;14278;50.784;4.630;2022-07-23T05:55:52;6.40;;;3.70;;
26654;SDS011;14278;50.784;4.630;2022-07-23T05:58:18;3.70;;;3.38;;
26654;SDS011;14278;50.784;4.630;2022-07-23T06:00:43;3.17;;;2.83;;
26654;SDS011;14278;50.784;4.630;2022-07-23T06:03:09;3.67;;;3.23;;
26654;SDS011;14278;50.784;4.630;2022-07-23T06:05:35;3.28;;;2.97;;
26654;SDS011;14278;50.784;4.630;2022-07-23T06:08:01;6.43;;;3.05;;
26654;SDS011;14278;50.784;4.630;2022-07-23T06:10:26;2.95;;;2.75;;
26654;SDS011;14278;50.784;4.630;2022-07-23T06:12:52;4.10;;;3.70;;
26654;SDS011;14278;50.784;4.630;2022-07-23T06:15:18;3.43;;;3.13;;
26654;SDS011;14278;50.784;4.630;2022-07-23T06:17:44;4.43;;;3.03;;
26654;SDS011;14278;50.784;4.630;2022-07-23T06:20:11;4.83;;;4.07;;
26654;SDS011;14278;50.784;4.630;2022-07-23T06:22:37;4.35;;;3.95;;
26654;SDS011;14278;50.784;4.630;2022-07-23T06:25:03;4.30;;;3.90;;
26654;SDS011;14278;50.784;4.630;2022-07-23T06:27:29;5.10;;;3.55;;
26654;SDS011;14278;50.784;4.630;2022-07-23T06:29:55;5.30;;;4.60;;
26654;SDS011;14278;50.784;4.630;2022-07-23T06:32:21;4.25;;;3.85;;
26654;SDS011;14278;50.784;4.630;2022-07-23T06:34:47;10.43;;;5.20;;
26654;SDS011;14278;50.784;4.630;2022-07-23T06:37:12;8.40;;;4.97;;
26654;SDS011;14278;50.784;4.630;2022-07-23T06:39:39;4.80;;;4.35;;
26654;SDS011;14278;50.784;4.630;2022-07-23T06:42:05;5.40;;;4.28;;
26654;SDS011;14278;50.784;4.630;2022-07-23T06:44:30;4.28;;;3.88;;
26654;SDS011;14278;50.784;4.630;2022-07-23T06:46:57;7.35;;;5.10;;
26654;SDS011;14278;50.784;4.630;2022-07-23T06:49:22;4.15;;;3.72;;
26654;SDS011;14278;50.784;4.630;2022-07-23T06:51:48;6.13;;;4.45;;
26654;SDS011;14278;50.784;4.630;2022-07-23T06:54:14;6.00;;;4.40;;
26654;SDS011;14278;50.784;4.630;2022-07-23T06:56:40;4.18;;;3.65;;
26654;SDS011;14278;50.784;4.630;2022-07-23T06:59:06;9.13;;;3.63;;
26654;SDS011;14278;50.784;4.630;2022-07-23T07:01:32;3.45;;;3.15;;
26654;SDS011;14278;50.784;4.630;2022-07-23T07:03:58;7.25;;;4.32;;
26654;SDS011;14278;50.784;4.630;2022-07-23T07:06:23;4.53;;;4.00;;
26654;SDS011;14278;50.784;4.630;2022-07-23T07:08:49;4.65;;;2.90;;
26654;SDS011;14278;50.784;4.630;2022-07-23T07:11:15;5.35;;;2.97;;
26654;SDS011;14278;50.784;4.630;2022-07-23T07:13:41;3.13;;;2.90;;
26654;SDS011;14278;50.784;4.630;2022-07-23T07:16:07;3.45;;;3.13;;
26654;SDS011;14278;50.784;4.630;2022-07-23T07:18:33;6.40;;;3.65;;
26654;SDS011;14278;50.784;4.630;2022-07-23T07:20:58;3.17;;;2.88;;
26654;SDS011;14278;50.784;4.630;2022-07-23T07:23:24;5.05;;;3.15;;
26654;SDS011;14278;50.784;4.630;2022-07-23T07:25:50;3.97;;;3.58;;
26654;SDS011;14278;50.784;4.630;2022-07-23T07:28:16;3.75;;;3.20;;
26654;SDS011;14278;50.784;4.630;2022-07-23T07:30:45;3.85;;;3.15;;
26654;SDS011;14278;50.784;4.630;2022-07-23T07:33:11;11.88;;;2.85;;
26654;SDS011;14278;50.784;4.630;2022-07-23T07:35:36;3.60;;;2.42;;
26654;SDS011;14278;50.784;4.630;2022-07-23T07:38:06;2.70;;;2.47;;
26654;SDS011;14278;50.784;4.630;2022-07-23T07:40:33;3.25;;;2.95;;
26654;SDS011;14278;50.784;4.630;2022-07-23T07:43:00;3.35;;;2.88;;
26654;SDS011;14278;50.784;4.630;2022-07-23T07:45:28;2.95;;;2.70;;
26654;SDS011;14278;50.784;4.630;2022-07-23T07:47:54;5.60;;;3.53;;
26654;SDS011;14278;50.784;4.630;2022-07-23T07:50:20;4.53;;;3.22;;
26654;SDS011;14278;50.784;4.630;2022-07-23T07:52:46;2.90;;;2.63;;
26654;SDS011;14278;50.784;4.630;2022-07-23T07:55:12;3.90;;;2.90;;
26654;SDS011;14278;50.784;4.630;2022-07-23T07:57:38;4.50;;;3.38;;
26654;SDS011;14278;50.784;4.630;2022-07-23T08:00:08;3.60;;;3.30;;
26654;SDS011;14278;50.784;4.630;2022-07-23T08:02:45;3.50;;;3.20;;
26654;SDS011;14278;50.784;4.630;2022-07-23T08:05:14;3.20;;;2.50;;
26654;SDS011;14278;50.784;4.630;2022-07-23T08:07:43;2.60;;;2.40;;
26654;SDS011;14278;50.784;4.630;2022-07-23T08:10:09;3.47;;;3.10;;
26654;SDS011;14278;50.784;4.630;2022-07-23T08:12:42;2.60;;;2.40;;
26654;SDS011;14278;50.784;4.630;2022-07-23T08:15:12;1.80;;;1.70;;
26654;SDS011;14278;50.784;4.630;2022-07-23T08:17:40;2.67;;;2.25;;
26654;SDS011;14278;50.784;4.630;2022-07-23T08:20:07;3.67;;;2.72;;
26654;SDS011;14278;50.784;4.630;2022-07-23T08:22:47;6.20;;;3.13;;
26654;SDS011;14278;50.784;4.630;2022-07-23T08:25:13;3.50;;;3.20;;
26654;SDS011;14278;50.784;4.630;2022-07-23T08:27:40;2.42;;;2.22;;
26654;SDS011;14278;50.784;4.630;2022-07-23T08:30:08;2.90;;;2.65;;
26654;SDS011;14278;50.784;4.630;2022-07-23T08:35:40;3.65;;;2.60;;
26654;SDS011;14278;50.784;4.630;2022-07-23T08:38:08;3.28;;;2.80;;
26654;SDS011;14278;50.784;4.630;2022-07-23T08:40:43;2.25;;;2.05;;
26654;SDS011;14278;50.784;4.630;2022-07-23T08:43:11;2.67;;;2.47;;
26654;SDS011;14278;50.784;4.630;2022-07-23T08:45:40;2.88;;;2.65;;
26654;SDS011;14278;50.784;4.630;2022-07-23T08:48:11;3.78;;;2.70;;
26654;SDS011;14278;50.784;4.630;2022-07-23T08:50:46;1.98;;;1.77;;
26654;SDS011;14278;50.784;4.630;2022-07-23T08:53:14;2.08;;;1.85;;
26654;SDS011;14278;50.784;4.630;2022-07-23T08:55:43;2.22;;;2.13;;
26654;SDS011;14278;50.784;4.630;2022-07-23T08:58:10;2.60;;;2.38;;
26654;SDS011;14278;50.784;4.630;2022-07-23T09:00:36;3.60;;;2.28;;
26654;SDS011;14278;50.784;4.630;2022-07-23T09:03:02;2.90;;;2.60;;
26654;SDS011;14278;50.784;4.630;2022-07-23T09:05:28;4.28;;;2.90;;
26654;SDS011;14278;50.784;4.630;2022-07-23T09:08:03;2.28;;;2.15;;
26654;SDS011;14278;50.784;4.630;2022-07-23T09:10:52;4.32;;;2.92;;
26654;SDS011;14278;50.784;4.630;2022-07-23T09:15:59;3.70;;;2.45;;
26654;SDS011;14278;50.784;4.630;2022-07-23T09:18:28;3.05;;;2.72;;
26654;SDS011;14278;50.784;4.630;2022-07-23T09:21:06;3.40;;;3.10;;
26654;SDS011;14278;50.784;4.630;2022-07-23T09:23:44;3.13;;;2.80;;
26654;SDS011;14278;50.784;4.630;2022-07-23T09:26:19;3.33;;;2.53;;
26654;SDS011;14278;50.784;4.630;2022-07-23T09:28:59;2.75;;;2.53;;
26654;SDS011;14278;50.784;4.630;2022-07-23T09:31:48;4.13;;;2.65;;
26654;SDS011;14278;50.784;4.630;2022-07-23T09:34:27;2.22;;;2.00;;
26654;SDS011;14278;50.784;4.630;2022-07-23T09:37:19;2.17;;;1.98;;
26654;SDS011;14278;50.784;4.630;2022-07-23T09:39:45;4.25;;;2.63;;
26654;SDS011;14278;50.784;4.630;2022-07-23T09:42:13;3.15;;;2.85;;
26654;SDS011;14278;50.784;4.630;2022-07-23T09:44:44;3.92;;;2.45;;
26654;SDS011;14278;50.784;4.630;2022-07-23T09:47:12;2.25;;;2.05;;
26654;SDS011;14278;50.784;4.630;2022-07-23T09:49:38;2.55;;;2.28;;
26654;SDS011;14278;50.784;4.630;2022-07-23T09:52:04;3.05;;;2.78;;
26654;SDS011;14278;50.784;4.630;2022-07-23T09:57:00;4.05;;;2.13;;
26654;SDS011;14278;50.784;4.630;2022-07-23T09:59:29;2.20;;;1.92;;
26654;SDS011;14278;50.784;4.630;2022-07-23T10:01:58;1.80;;;1.70;;
26654;SDS011;14278;50.784;4.630;2022-07-23T10:04:25;3.42;;;2.72;;
26654;SDS011;14278;50.784;4.630;2022-07-23T10:06:56;1.98;;;1.80;;
26654;SDS011;14278;50.784;4.630;2022-07-23T10:09:26;2.13;;;2.03;;
26654;SDS011;14278;50.784;4.630;2022-07-23T10:11:57;4.30;;;2.55;;
26654;SDS011;14278;50.784;4.630;2022-07-23T10:14:49;1.88;;;1.73;;
26654;SDS011;14278;50.784;4.630;2022-07-23T10:17:15;1.75;;;1.65;;
26654;SDS011;14278;50.784;4.630;2022-07-23T10:19:41;2.22;;;2.03;;
26654;SDS011;14278;50.784;4.630;2022-07-23T10:22:13;2.33;;;1.85;;
26654;SDS011;14278;50.784;4.630;2022-07-23T10:24:58;1.98;;;1.77;;
26654;SDS011;14278;50.784;4.630;2022-07-23T10:31:00;1.52;;;1.42;;
26654;SDS011;14278;50.784;4.630;2022-07-23T10:44:58;1.77;;;1.60;;
26654;SDS011;14278;50.784;4.630;2022-07-23T10:47:28;0.75;;;0.75;;
26654;SDS011;14278;50.784;4.630;2022-07-23T10:50:20;0.75;;;0.75;;
26654;SDS011;14278;50.784;4.630;2022-07-23T10:53:12;2.05;;;1.33;;
26654;SDS011;14278;50.784;4.630;2022-07-23T10:58:05;0.70;;;0.70;;
26654;SDS011;14278;50.784;4.630;2022-07-23T11:00:32;0.80;;;0.60;;
26654;SDS011;14278;50.784;4.630;2022-07-23T11:03:00;2.15;;;0.88;;
26654;SDS011;14278;50.784;4.630;2022-07-23T11:05:45;0.50;;;0.50;;
26654;SDS011;14278;50.784;4.630;2022-07-23T11:08:12;0.60;;;0.60;;
26654;SDS011;14278;50.784;4.630;2022-07-23T11:10:54;1.95;;;1.15;;
26654;SDS011;14278;50.784;4.630;2022-07-23T11:13:37;0.50;;;0.50;;
26654;SDS011;14278;50.784;4.630;2022-07-23T11:16:14;1.05;;;0.82;;
26654;SDS011;14278;50.784;4.630;2022-07-23T11:24:07;0.80;;;0.80;;
26654;SDS011;14278;50.784;4.630;2022-07-23T11:36:59;1.02;;;0.90;;
26654;SDS011;14278;50.784;4.630;2022-07-23T11:39:27;0.60;;;0.60;;
26654;SDS011;14278;50.784;4.630;2022-07-23T11:41:55;1.73;;;0.93;;
26654;SDS011;14278;50.784;4.630;2022-07-23T11:44:25;0.80;;;0.80;;
26654;SDS011;14278;50.784;4.630;2022-07-23T11:47:03;0.70;;;0.70;;
26654;SDS011;14278;50.784;4.630;2022-07-23T11:49:30;1.25;;;0.75;;
26654;SDS011;14278;50.784;4.630;2022-07-23T11:52:07;0.60;;;0.60;;
26654;SDS011;14278;50.784;4.630;2022-07-23T11:54:52;0.65;;;0.65;;
26654;SDS011;14278;50.784;4.630;2022-07-23T11:57:20;0.60;;;0.60;;
26654;SDS011;14278;50.784;4.630;2022-07-23T11:59:51;0.55;;;0.55;;
26654;SDS011;14278;50.784;4.630;2022-07-23T12:02:20;1.13;;;1.02;;
26654;SDS011;14278;50.784;4.630;2022-07-23T12:04:47;0.63;;;0.63;;
26654;SDS011;14278;50.784;4.630;2022-07-23T12:10:03;1.73;;;1.20;;
26654;SDS011;14278;50.784;4.630;2022-07-23T12:12:38;1.02;;;0.88;;
26654;SDS011;14278;50.784;4.630;2022-07-23T12:15:08;1.42;;;0.90;;
26654;SDS011;14278;50.784;4.630;2022-07-23T12:17:37;1.23;;;1.13;;
26654;SDS011;14278;50.784;4.630;2022-07-23T12:20:05;1.45;;;0.95;;
26654;SDS011;14278;50.784;4.630;2022-07-23T12:22:34;0.63;;;0.63;;
26654;SDS011;14278;50.784;4.630;2022-07-23T12:25:11;0.80;;;0.73;;
26654;SDS011;14278;50.784;4.630;2022-07-23T12:27:38;1.10;;;1.10;;
26654;SDS011;14278;50.784;4.630;2022-07-23T12:30:20;0.68;;;0.68;;
26654;SDS011;14278;50.784;4.630;2022-07-23T12:32:53;0.82;;;0.82;;
26654;SDS011;14278;50.784;4.630;2022-07-23T12:35:21;1.17;;;1.05;;
26654;SDS011;14278;50.784;4.630;2022-07-23T12:37:49;0.68;;;0.68;;
26654;SDS011;14278;50.784;4.630;2022-07-23T12:40:21;1.90;;;1.40;;
26654;SDS011;14278;50.784;4.630;2022-07-23T12:43:05;0.70;;;0.70;;
26654;SDS011;14278;50.784;4.630;2022-07-23T12:45:50;0.80;;;0.80;;
26654;SDS011;14278;50.784;4.630;2022-07-23T12:48:19;1.10;;;1.00;;
26654;SDS011;14278;50.784;4.630;2022-07-23T12:50:55;1.00;;;0.93;;
26654;SDS011;14278;50.784;4.630;2022-07-23T12:53:30;0.95;;;0.93;;
26654;SDS011;14278;50.784;4.630;2022-07-23T12:56:00;1.83;;;1.27;;
26654;SDS011;14278;50.784;4.630;2022-07-23T13:04:04;2.92;;;1.00;;
26654;SDS011;14278;50.784;4.630;2022-07-23T13:06:32;1.25;;;1.15;;
26654;SDS011;14278;50.784;4.630;2022-07-23T13:09:00;2.17;;;1.08;;
26654;SDS011;14278;50.784;4.630;2022-07-23T13:11:27;1.10;;;0.95;;
26654;SDS011;14278;50.784;4.630;2022-07-23T13:13:53;1.48;;;1.17;;
26654;SDS011;14278;50.784;4.630;2022-07-23T13:16:19;1.42;;;1.10;;
26654;SDS011;14278;50.784;4.630;2022-07-23T13:18:45;1.80;;;1.35;;
26654;SDS011;14278;50.784;4.630;2022-07-23T13:21:11;1.02;;;1.02;;
26654;SDS011;14278;50.784;4.630;2022-07-23T13:23:37;1.17;;;1.00;;
26654;SDS011;14278;50.784;4.630;2022-07-23T13:26:02;1.48;;;1.15;;
26654;SDS011;14278;50.784;4.630;2022-07-23T13:28:29;1.30;;;1.17;;
26654;SDS011;14278;50.784;4.630;2022-07-23T13:30:56;1.17;;;1.08;;
26654;SDS011;14278;50.784;4.630;2022-07-23T13:33:24;1.05;;;1.02;;
26654;SDS011;14278;50.784;4.630;2022-07-23T13:35:51;1.15;;;1.08;;
26654;SDS011;14278;50.784;4.630;2022-07-23T13:38:18;1.23;;;1.13;;
26654;SDS011;14278;50.784;4.630;2022-07-23T13:40:45;1.38;;;1.27;;
26654;SDS011;14278;50.784;4.630;2022-07-23T13:43:15;1.40;;;1.30;;
26654;SDS011;14278;50.784;4.630;2022-07-23T13:45:42;1.13;;;1.10;;
26654;SDS011;14278;50.784;4.630;2022-07-23T13:48:09;1.33;;;1.23;;
26654;SDS011;14278;50.784;4.630;2022-07-23T13:50:36;1.50;;;1.40;;
26654;SDS011;14278;50.784;4.630;2022-07-23T13:53:03;1.08;;;1.05;;
26654;SDS011;14278;50.784;4.630;2022-07-23T13:55:31;0.75;;;0.75;;
26654;SDS011;14278;50.784;4.630;2022-07-23T13:57:58;2.08;;;1.25;;
26654;SDS011;14278;50.784;4.630;2022-07-23T14:00:24;1.50;;;1.40;;
26654;SDS011;14278;50.784;4.630;2022-07-23T14:02:53;2.05;;;1.40;;
26654;SDS011;14278;50.784;4.630;2022-07-23T14:05:19;1.42;;;1.33;;
26654;SDS011;14278;50.784;4.630;2022-07-23T14:07:46;3.00;;;1.42;;
26654;SDS011;14278;50.784;4.630;2022-07-23T14:10:14;1.88;;;1.13;;
26654;SDS011;14278;50.784;4.630;2022-07-23T14:12:42;1.52;;;1.27;;
26654;SDS011;14278;50.784;4.630;2022-07-23T14:15:08;1.15;;;0.90;;
26654;SDS011;14278;50.784;4.630;2022-07-23T14:17:38;6.80;;;1.23;;
26654;SDS011;14278;50.784;4.630;2022-07-23T14:20:06;0.90;;;0.90;;
26654;SDS011;14278;50.784;4.630;2022-07-23T14:22:33;1.35;;;1.25;;
26654;SDS011;14278;50.784;4.630;2022-07-23T14:24:59;1.50;;;1.40;;
26654;SDS011;14278;50.784;4.630;2022-07-23T14:27:26;1.30;;;1.20;;
26654;SDS011;14278;50.784;4.630;2022-07-23T14:29:53;1.13;;;1.13;;
26654;SDS011;14278;50.784;4.630;2022-07-23T14:32:20;1.20;;;1.05;;
26654;SDS011;14278;50.784;4.630;2022-07-23T14:34:46;2.40;;;1.42;;
26654;SDS011;14278;50.784;4.630;2022-07-23T14:37:12;3.92;;;1.52;;
26654;SDS011;14278;50.784;4.630;2022-07-23T14:39:38;1.52;;;1.42;;
26654;SDS011;14278;50.784;4.630;2022-07-23T14:42:05;1.60;;;1.50;;
26654;SDS011;14278;50.784;4.630;2022-07-23T14:44:31;1.38;;;1.27;;
26654;SDS011;14278;50.784;4.630;2022-07-23T14:46:57;1.08;;;0.98;;
26654;SDS011;14278;50.784;4.630;2022-07-23T14:49:24;2.67;;;1.50;;
26654;SDS011;14278;50.784;4.630;2022-07-23T14:51:51;1.27;;;1.20;;
26654;SDS011;14278;50.784;4.630;2022-07-23T14:54:17;1.08;;;1.02;;
26654;SDS011;14278;50.784;4.630;2022-07-23T14:56:45;1.80;;;1.38;;
26654;SDS011;14278;50.784;4.630;2022-07-23T14:59:11;1.40;;;1.30;;
26654;SDS011;14278;50.784;4.630;2022-07-23T15:01:37;1.90;;;1.73;;
26654;SDS011;14278;50.784;4.630;2022-07-23T15:04:04;1.23;;;1.15;;
26654;SDS011;14278;50.784;4.630;2022-07-23T15:06:31;1.45;;;1.35;;
26654;SDS011;14278;50.784;4.630;2022-07-23T15:08:58;1.35;;;1.30;;
26654;SDS011;14278;50.784;4.630;2022-07-23T15:11:25;1.30;;;1.20;;
26654;SDS011;14278;50.784;4.630;2022-07-23T15:13:54;1.73;;;1.50;;
26654;SDS011;14278;50.784;4.630;2022-07-23T15:16:20;2.40;;;1.63;;
26654;SDS011;14278;50.784;4.630;2022-07-23T15:18:45;1.77;;;1.67;;
26654;SDS011;14278;50.784;4.630;2022-07-23T15:21:15;1.75;;;1.60;;
26654;SDS011;14278;50.784;4.630;2022-07-23T15:23:40;1.60;;;1.50;;
26654;SDS011;14278;50.784;4.630;2022-07-23T15:26:06;3.80;;;1.77;;
26654;SDS011;14278;50.784;4.630;2022-07-23T15:28:33;1.70;;;1.60;;
26654;SDS011;14278;50.784;4.630;2022-07-23T15:30:59;1.88;;;1.70;;
26654;SDS011;14278;50.784;4.630;2022-07-23T15:33:26;1.58;;;1.48;;
26654;SDS011;14278;50.784;4.630;2022-07-23T15:35:51;2.60;;;1.83;;
26654;SDS011;14278;50.784;4.630;2022-07-23T15:38:20;1.38;;;1.27;;
26654;SDS011;14278;50.784;4.630;2022-07-23T15:40:46;2.38;;;1.70;;
26654;SDS011;14278;50.784;4.630;2022-07-23T15:43:11;1.17;;;1.15;;
26654;SDS011;14278;50.784;4.630;2022-07-23T15:45:38;1.05;;;0.98;;